Time;durP1;ratioP1;P1;durP2;ratioP2;P2;SDS_P1;SDS_P2;PMS_P1;PMS_P2;Temp;Humidity;BMP_temperature;BMP_pressure;BME280_temperature;BME280_humidity;BME280_pressure;Samples;Min_cycle;Max_cycle;Signal;HPM_P1;HPM_P2
2021/01/05 00:01:29;;;;;;;35.73;16.13;;;;;;;-0.41;88.34;100062.91;119997;1147;22945;-63
2021/01/05 00:03:56;;;;;;;40.07;17.27;;;;;;;-0.49;88.59;100071.83;124184;1147;22729;-64
2021/01/05 00:06:23;;;;;;;58.60;25.83;;;;;;;-0.56;88.74;100068.16;124198;1146;22656;-64
2021/01/05 00:08:51;;;;;;;42.90;17.97;;;;;;;-0.60;88.71;100066.02;124195;1146;23421;-64
2021/01/05 00:11:18;;;;;;;32.20;15.40;;;;;;;-0.62;89.19;100073.38;124232;1146;22760;-64
2021/01/05 00:13:46;;;;;;;38.70;17.53;;;;;;;-0.64;88.39;100078.06;124366;1147;22712;-64
2021/01/05 00:16:13;;;;;;;41.83;17.00;;;;;;;-0.63;89.02;100085.92;123980;1145;23481;-64
2021/01/05 00:18:40;;;;;;;35.63;15.70;;;;;;;-0.63;88.63;100083.25;124349;1146;22788;-64
2021/01/05 00:21:08;;;;;;;34.40;15.53;;;;;;;-0.62;89.06;100084.09;124116;1148;23445;-64
2021/01/05 00:23:35;;;;;;;41.20;19.83;;;;;;;-0.62;88.57;100089.44;124275;1146;22702;-64
2021/01/05 00:26:02;;;;;;;61.30;26.20;;;;;;;-0.59;89.52;100089.94;122491;1147;22885;-64
2021/01/05 00:28:30;;;;;;;43.97;19.50;;;;;;;-0.56;89.57;100086.05;124344;1148;22842;-64
2021/01/05 00:30:57;;;;;;;32.63;15.43;;;;;;;-0.56;88.60;100080.70;124187;1148;23304;-64
2021/01/05 00:33:25;;;;;;;37.93;18.53;;;;;;;-0.55;88.74;100079.70;124109;1148;23348;-64
2021/01/05 00:35:52;;;;;;;38.70;17.07;;;;;;;-0.55;88.71;100082.38;124214;1148;22759;-65
2021/01/05 00:38:19;;;;;;;37.93;16.97;;;;;;;-0.54;89.27;100073.34;124010;1148;22718;-64
2021/01/05 00:40:47;;;;;;;39.07;18.57;;;;;;;-0.53;89.42;100073.17;124213;1148;22723;-64
2021/01/05 00:43:14;;;;;;;38.87;18.77;;;;;;;-0.52;89.00;100076.68;124065;1148;24079;-64
2021/01/05 00:45:42;;;;;;;65.77;28.43;;;;;;;-0.55;89.11;100075.18;124242;1145;22662;-64
2021/01/05 00:48:13;;;;;;;44.13;19.27;;;;;;;-0.57;89.48;100081.70;124134;1148;22706;-64
2021/01/05 00:50:41;;;;;;;41.80;17.73;;;;;;;-0.58;88.57;100074.72;124120;1148;22731;-64
2021/01/05 00:53:09;;;;;;;51.47;22.67;;;;;;;-0.60;89.49;100077.56;123976;1148;22711;-64
2021/01/05 00:55:36;;;;;;;49.10;23.77;;;;;;;-0.62;88.77;100082.25;123425;1149;22909;-64
2021/01/05 00:58:04;;;;;;;55.83;26.10;;;;;;;-0.64;89.58;100075.39;124190;1146;22817;-64
2021/01/05 01:00:32;;;;;;;51.07;22.17;;;;;;;-0.67;88.76;100076.56;124149;1148;22687;-65
2021/01/05 01:03:07;;;;;;;50.80;23.77;;;;;;;-0.67;88.71;100071.21;124120;1146;23319;-64
2021/01/05 01:05:36;;;;;;;47.53;22.07;;;;;;;-0.65;89.77;100063.02;124071;1148;22729;-64
2021/01/05 01:08:04;;;;;;;50.15;22.40;;;;;;;-0.66;88.73;100059.50;123899;1148;22712;-64
2021/01/05 01:10:32;;;;;;;55.03;23.43;;;;;;;-0.69;88.93;100065.20;124092;1149;22835;-64
2021/01/05 01:13:00;;;;;;;43.90;20.07;;;;;;;-0.82;89.00;100046.17;123809;1150;23472;-65
2021/01/05 01:15:28;;;;;;;53.40;24.77;;;;;;;-0.74;89.75;100062.22;124050;1150;22992;-64
2021/01/05 01:17:55;;;;;;;38.20;19.00;;;;;;;-0.77;89.30;100060.72;123813;1150;22816;-64
2021/01/05 01:20:23;;;;;;;44.50;21.00;;;;;;;-0.87;89.33;100046.71;123802;1150;23920;-64
2021/01/05 01:22:51;;;;;;;40.50;19.80;;;;;;;-0.82;89.55;100063.06;123968;1150;22766;-64
2021/01/05 01:25:20;;;;;;;49.85;22.50;;;;;;;-0.85;89.44;100066.07;123551;1149;22779;-64
2021/01/05 01:27:48;;;;;;;60.60;24.07;;;;;;;-0.86;88.84;100056.38;123937;1149;22774;-64
2021/01/05 01:30:22;;;;;;;46.93;21.37;;;;;;;-0.86;89.90;100060.89;123836;1149;22689;-65
2021/01/05 01:32:54;;;;;;;48.30;22.33;;;;;;;-0.86;89.21;100053.70;123945;1151;22718;-64
2021/01/05 01:35:23;;;;;;;41.57;19.73;;;;;;;-0.86;89.19;100064.41;123649;1151;22863;-64
2021/01/05 01:37:50;;;;;;;66.77;28.53;;;;;;;-0.89;89.34;100059.42;123803;1150;22709;-64
2021/01/05 01:40:38;;;;;;;51.03;22.77;;;;;;;-0.89;88.97;100058.59;123726;1151;22717;-64
2021/01/05 01:43:11;;;;;;;47.17;21.27;;;;;;;-0.89;89.38;100063.94;124030;1149;22809;-64
2021/01/05 01:45:38;;;;;;;47.90;20.90;;;;;;;-0.87;88.84;100059.25;123985;1149;22878;-64
2021/01/05 01:48:09;;;;;;;63.23;28.23;;;;;;;-0.89;89.82;100066.61;124077;1149;23284;-64
2021/01/05 01:50:37;;;;;;;57.03;21.83;;;;;;;-0.89;89.52;100061.26;123858;1150;23502;-64
2021/01/05 01:53:22;;;;;;;40.47;18.53;;;;;;;-0.92;88.99;100054.41;124122;1148;22911;-64
2021/01/05 01:56:15;;;;;;;52.83;21.83;;;;;;;-0.95;89.40;100054.74;123885;1149;22876;-64
2021/01/05 01:59:07;;;;;;;47.97;21.43;;;;;;;-1.00;89.47;100057.08;124033;1150;22753;-64
2021/01/05 02:01:58;;;;;;;134.13;47.20;;;;;;;-1.02;89.50;100053.77;123931;1149;22695;-64
2021/01/05 02:04:54;;;;;;;49.07;22.57;;;;;;;-1.00;89.37;100056.25;124058;1149;23003;-64
2021/01/05 02:07:53;;;;;;;66.47;24.77;;;;;;;-1.00;89.32;100051.73;124227;1148;22681;-64
2021/01/05 02:10:34;;;;;;;46.10;20.57;;;;;;;-0.97;88.97;100054.08;123883;1148;23626;-64
2021/01/05 02:13:08;;;;;;;53.17;22.22;;;;;;;-0.92;90.04;100045.55;124150;1148;22701;-64
2021/01/05 02:15:59;;;;;;;100.57;35.43;;;;;;;-0.90;89.29;100041.70;124042;1147;22716;-64
2021/01/05 02:18:57;;;;;;;48.80;21.80;;;;;;;-0.86;89.52;100039.49;119530;1148;26907;-64
2021/01/05 02:21:31;;;;;;;44.27;20.82;;;;;;;-0.86;89.27;100032.30;124172;1148;22858;-64
2021/01/05 02:24:05;;;;;;;58.43;27.50;;;;;;;-0.89;89.91;100032.67;124119;1148;22677;-64
2021/01/05 02:26:53;;;;;;;89.80;31.10;;;;;;;-0.89;89.65;100042.53;123972;1148;23272;-65
2021/01/05 02:29:29;;;;;;;49.40;21.87;;;;;;;-0.89;88.95;100030.00;124120;1148;22792;-64
2021/01/05 02:32:16;;;;;;;74.12;30.90;;;;;;;-0.87;89.84;100036.02;123984;1148;22678;-64
2021/01/05 02:35:04;;;;;;;51.23;24.33;;;;;;;-0.85;88.99;100017.09;124113;1149;22685;-64
2021/01/05 02:37:54;;;;;;;63.63;27.67;;;;;;;-0.84;89.49;100019.59;123965;1149;22705;-64
2021/01/05 02:40:56;;;;;;;43.73;21.57;;;;;;;-0.84;89.35;100016.09;124276;1148;22700;-64
2021/01/05 02:44:18;;;;;;;43.80;20.47;;;;;;;-0.87;89.31;100017.29;124286;1146;23871;-64
2021/01/05 02:47:35;;;;;;;51.77;25.60;;;;;;;-0.93;89.57;100011.78;124124;1148;22688;-64
2021/01/05 02:50:48;;;;;;;37.37;19.87;;;;;;;-0.98;89.25;99998.08;124170;1148;22710;-64
2021/01/05 02:54:10;;;;;;;45.00;20.73;;;;;;;-1.04;89.35;99999.63;124075;1147;22738;-65
2021/01/05 02:57:30;;;;;;;53.70;25.63;;;;;;;-1.07;89.82;99989.27;124101;1148;22678;-64
2021/01/05 03:00:25;;;;;;;51.92;24.57;;;;;;;-1.07;89.77;99987.42;124172;1149;23329;-64
2021/01/05 03:03:36;;;;;;;52.80;24.50;;;;;;;-1.05;89.91;99978.40;124042;1149;22699;-64
2021/01/05 03:06:30;;;;;;;41.07;19.37;;;;;;;-1.02;89.82;99975.39;124197;1148;22705;-65
2021/01/05 03:09:36;;;;;;;42.87;20.90;;;;;;;-1.01;90.10;99969.84;123882;1149;22716;-64
2021/01/05 03:12:22;;;;;;;45.63;21.57;;;;;;;-0.97;89.93;99971.17;123929;1149;22688;-65
2021/01/05 03:15:25;;;;;;;38.80;20.30;;;;;;;-0.99;89.24;99966.99;124234;1148;22781;-64
2021/01/05 03:18:14;;;;;;;37.03;18.90;;;;;;;-0.97;90.12;99968.49;123965;1148;23306;-65
2021/01/05 03:21:11;;;;;;;36.23;18.83;;;;;;;-0.98;89.41;99971.34;124048;1148;22759;-64
2021/01/05 03:23:57;;;;;;;35.80;18.77;;;;;;;-1.00;89.66;99965.33;124104;1148;22747;-64
2021/01/05 03:26:44;;;;;;;33.50;17.73;;;;;;;-1.01;90.15;99964.48;124093;1148;22745;-64
2021/01/05 03:29:30;;;;;;;37.37;17.93;;;;;;;-1.00;89.58;99968.00;124011;1148;22676;-64
2021/01/05 03:32:16;;;;;;;39.93;19.10;;;;;;;-0.99;89.42;99962.48;124050;1150;23023;-64
2021/01/05 03:35:19;;;;;;;33.50;17.83;;;;;;;-0.96;89.89;99975.52;123878;1148;22859;-60
2021/01/05 03:38:05;;;;;;;30.80;17.03;;;;;;;-0.91;89.32;99980.35;124105;1148;23317;-61
2021/01/05 03:40:51;;;;;;;28.23;15.80;;;;;;;-0.89;89.84;99978.34;124007;1148;22724;-60
2021/01/05 03:43:36;;;;;;;34.00;15.90;;;;;;;-0.87;89.25;99979.84;124079;1148;23465;-60
2021/01/05 03:46:25;;;;;;;27.30;15.07;;;;;;;-0.88;89.69;99978.17;124184;1148;22696;-60
2021/01/05 03:49:11;;;;;;;;;;;;;;;-0.91;89.67;99972.33;123977;1148;22725;-60
2021/01/05 03:51:57;;;;;;;27.70;14.00;;;;;;;-0.92;89.74;99984.03;124076;1149;21923;-60
2021/01/05 03:54:43;;;;;;;29.30;15.80;;;;;;;-0.93;89.24;99977.85;123991;1148;22687;-60
2021/01/05 03:57:29;;;;;;;27.73;13.67;;;;;;;-0.95;90.14;99965.65;124170;1148;22707;-61
2021/01/05 04:00:19;;;;;;;25.67;13.80;;;;;;;-0.95;89.31;99962.98;124096;1148;22784;-61
2021/01/05 04:02:49;;;;;;;22.27;11.73;;;;;;;-0.96;89.57;99962.14;124274;1148;22739;-60
2021/01/05 04:05:16;;;;;;;22.50;13.37;;;;;;;-0.99;89.28;99972.34;124077;1148;22667;-58
2021/01/05 04:07:44;;;;;;;24.77;13.67;;;;;;;-1.00;89.64;99965.33;124252;1148;22723;-59
2021/01/05 04:10:12;;;;;;;28.60;14.97;;;;;;;-1.01;90.15;99964.48;124100;1148;22781;-58
2021/01/05 04:12:39;;;;;;;24.77;12.67;;;;;;;-1.01;89.72;99961.02;124118;1148;22784;-59
2021/01/05 04:15:08;;;;;;;24.23;13.33;;;;;;;-1.01;90.03;99963.69;124118;1148;22754;-59
2021/01/05 04:17:36;;;;;;;26.77;13.37;;;;;;;-1.00;90.26;99947.44;124182;1148;22704;-59
2021/01/05 04:20:04;;;;;;;25.13;13.43;;;;;;;-0.97;90.16;99956.96;123978;1148;22704;-58
2021/01/05 04:22:32;;;;;;;23.80;12.77;;;;;;;-0.95;90.05;99953.11;124116;1148;22700;-58
2021/01/05 04:24:59;;;;;;;24.23;12.63;;;;;;;-1.05;90.20;99936.45;124160;1149;24996;-58
2021/01/05 04:27:27;;;;;;;20.20;10.43;;;;;;;-0.96;89.33;99945.26;124056;1149;22676;-59
2021/01/05 04:29:54;;;;;;;19.40;11.33;;;;;;;-0.98;89.69;99945.43;124270;1149;22714;-58
2021/01/05 04:32:22;;;;;;;18.43;10.60;;;;;;;-0.99;89.65;99959.80;124154;1148;22685;-58
2021/01/05 04:34:50;;;;;;;20.83;11.47;;;;;;;-0.98;89.59;99960.64;124163;1149;23574;-58
2021/01/05 04:37:17;;;;;;;22.70;12.47;;;;;;;-0.98;90.17;99955.30;124025;1148;22781;-58
2021/01/05 04:39:44;;;;;;;22.00;11.70;;;;;;;-1.00;89.79;99949.28;124247;1148;22788;-59
2021/01/05 04:42:44;;;;;;;22.13;11.37;;;;;;;-1.00;89.93;99951.95;124056;1149;22907;-59
2021/01/05 04:45:16;;;;;;;20.47;11.97;;;;;;;-1.00;89.40;99942.09;123741;1152;22752;-58
2021/01/05 04:47:57;;;;;;;19.10;11.20;;;;;;;-1.01;89.93;99950.31;123539;1151;22756;-59
2021/01/05 04:50:35;;;;;;;19.33;10.73;;;;;;;-1.04;89.58;99946.14;123782;1153;22712;-58
2021/01/05 04:53:11;;;;;;;22.83;12.20;;;;;;;-1.02;89.42;99935.28;123747;1151;22788;-58
2021/01/05 04:55:56;;;;;;;17.67;9.63;;;;;;;-1.05;90.16;99938.29;123734;1152;22957;-58
2021/01/05 04:58:26;;;;;;;22.07;11.40;;;;;;;-1.05;89.48;99946.31;123764;1153;23613;-58
2021/01/05 05:00:54;;;;;;;15.37;9.63;;;;;;;-1.04;89.63;99950.66;123772;1152;22724;-58
2021/01/05 05:04:03;;;;;;;19.50;10.73;;;;;;;-1.04;89.69;99948.81;123812;1152;23979;-58
2021/01/05 05:06:38;;;;;;;21.20;10.68;;;;;;;-1.05;89.61;99946.31;123353;1155;22808;-59
2021/01/05 05:09:22;;;;;;;17.77;9.37;;;;;;;-1.04;90.06;99947.98;123373;1155;22751;-58
2021/01/05 05:12:06;;;;;;;19.67;10.40;;;;;;;-1.03;90.28;99953.16;123311;1155;23565;-59
2021/01/05 05:15:26;;;;;;;18.13;10.33;;;;;;;-0.98;89.94;99936.57;123172;1155;22750;-58
2021/01/05 05:18:14;;;;;;;20.60;11.57;;;;;;;-1.00;90.23;99949.28;122961;1156;23410;-59
2021/01/05 05:20:54;;;;;;;17.63;10.10;;;;;;;-1.04;89.67;99945.31;123360;1154;22960;-59
2021/01/05 05:23:25;;;;;;;13.27;7.93;;;;;;;-1.09;89.70;99933.28;123301;1154;23660;-58
2021/01/05 05:26:09;;;;;;;19.73;10.80;;;;;;;-1.13;89.97;99945.32;123195;1154;22773;-59
2021/01/05 05:29:05;;;;;;;21.97;12.70;;;;;;;-1.11;89.96;99942.48;123148;1152;22833;-59
2021/01/05 05:31:33;;;;;;;22.13;11.50;;;;;;;-1.10;90.42;99933.45;123453;1154;23561;-59
2021/01/05 05:34:33;;;;;;;19.90;12.03;;;;;;;-1.08;90.39;99936.79;123385;1152;22732;-59
2021/01/05 05:37:02;;;;;;;;;;;;;;;-1.07;90.54;99928.59;123090;1159;22886;-59
2021/01/05 05:40:11;;;;;;;23.07;13.40;;;;;;;-1.08;90.54;99929.60;123053;1157;21487;-59
2021/01/05 05:43:01;;;;;;;17.20;9.80;;;;;;;-1.09;90.41;99933.28;122858;1158;22735;-59
2021/01/05 05:45:34;;;;;;;19.30;11.17;;;;;;;-1.07;90.24;99928.59;122859;1158;22732;-59
2021/01/05 05:48:06;;;;;;;20.13;11.37;;;;;;;-1.06;90.51;99926.76;123051;1156;22737;-59
2021/01/05 05:50:55;;;;;;;18.97;10.70;;;;;;;-1.07;89.99;99933.11;123322;1155;22705;-59
2021/01/05 05:53:25;;;;;;;19.50;11.27;;;;;;;-1.06;89.72;99929.43;123468;1156;22753;-59
2021/01/05 05:56:01;;;;;;;20.03;11.63;;;;;;;-1.05;90.55;99931.10;123467;1157;22783;-59
2021/01/05 05:58:33;;;;;;;20.20;11.33;;;;;;;-1.02;89.78;99929.92;123301;1156;22835;-59
2021/01/05 06:01:05;;;;;;;20.53;12.07;;;;;;;-1.00;90.58;99919.86;123400;1156;22713;-59
2021/01/05 06:03:32;;;;;;;21.83;11.50;;;;;;;-0.98;89.98;99921.36;123419;1156;22760;-59
2021/01/05 06:05:59;;;;;;;24.43;13.03;;;;;;;-0.95;90.22;99918.34;123175;1156;23547;-59
2021/01/05 06:08:27;;;;;;;27.47;15.00;;;;;;;-0.93;89.86;99918.17;123461;1156;22734;-59
2021/01/05 06:10:54;;;;;;;26.47;14.47;;;;;;;-0.91;90.73;99918.84;123326;1156;22749;-59
2021/01/05 06:13:22;;;;;;;28.43;15.00;;;;;;;-0.87;89.87;99922.84;123546;1148;22775;-59
2021/01/05 06:15:50;;;;;;;29.37;16.07;;;;;;;-0.86;90.24;99919.13;124210;1148;22692;-59
2021/01/05 06:18:19;;;;;;;26.73;15.57;;;;;;;-0.88;90.72;99911.31;124171;1148;23532;-59
2021/01/05 06:20:47;;;;;;;27.60;16.13;;;;;;;-0.91;90.25;99906.30;124104;1148;22699;-59
2021/01/05 06:23:14;;;;;;;21.20;11.80;;;;;;;-0.99;89.81;99906.32;124139;1148;26390;-59
2021/01/05 06:25:41;;;;;;;21.40;12.23;;;;;;;-1.04;89.81;99898.01;124026;1148;22680;-59
2021/01/05 06:28:09;;;;;;;22.40;13.50;;;;;;;-1.06;90.50;99900.02;124086;1149;22700;-59
2021/01/05 06:30:36;;;;;;;24.10;14.23;;;;;;;-1.09;89.57;99903.87;123942;1148;22753;-59
2021/01/05 06:33:04;;;;;;;22.07;13.43;;;;;;;-1.11;90.41;99903.20;124373;1148;22678;-59
2021/01/05 06:35:31;;;;;;;22.07;13.57;;;;;;;-1.13;90.29;99917.75;124135;1148;22750;-59
2021/01/05 06:37:59;;;;;;;30.90;16.23;;;;;;;-1.12;90.52;99909.55;124230;1148;22690;-59
2021/01/05 06:40:26;;;;;;;25.20;12.93;;;;;;;-1.11;90.32;99919.25;124041;1148;22683;-59
2021/01/05 06:42:54;;;;;;;21.33;12.37;;;;;;;-1.08;90.48;99916.23;124252;1148;22662;-59
2021/01/05 06:45:27;;;;;;;23.30;12.93;;;;;;;-1.04;89.93;99921.23;124209;1148;22662;-59
2021/01/05 06:47:55;;;;;;;22.40;11.83;;;;;;;-1.04;89.93;99922.08;124415;1146;22640;-59
2021/01/05 06:50:25;;;;;;;24.17;12.67;;;;;;;-1.04;90.49;99924.75;124077;1149;22702;-59
2021/01/05 06:52:52;;;;;;;22.93;13.23;;;;;;;-1.01;89.84;99923.58;124075;1149;22856;-59
2021/01/05 06:55:19;;;;;;;24.23;13.57;;;;;;;-1.01;90.55;99916.36;124150;1146;22714;-59
2021/01/05 06:57:47;;;;;;;25.20;14.33;;;;;;;-0.99;90.49;99922.37;124159;1148;23271;-59
2021/01/05 07:00:17;;;;;;;23.20;13.73;;;;;;;-0.96;90.92;99918.52;124274;1146;22779;-59
2021/01/05 07:02:45;;;;;;;22.90;12.67;;;;;;;-0.98;90.44;99921.36;124212;1148;22678;-59
2021/01/05 07:05:13;;;;;;;23.53;13.70;;;;;;;-1.00;89.89;99919.86;124272;1148;22685;-60
2021/01/05 07:07:40;;;;;;;18.87;11.63;;;;;;;-0.97;90.27;99927.55;124043;1148;22680;-59
2021/01/05 07:10:10;;;;;;;25.73;14.03;;;;;;;-0.95;90.50;99930.88;124166;1146;22695;-59
2021/01/05 07:12:37;;;;;;;25.20;13.57;;;;;;;-0.96;90.62;99934.56;124021;1148;22687;-59
2021/01/05 07:15:06;;;;;;;23.57;13.23;;;;;;;-0.96;90.64;99926.54;124092;1147;22748;-59
2021/01/05 07:36:01;;;;;;;22.67;12.93;;;;;;;-0.91;89.87;99911.65;124111;1148;22692;-58
2021/01/05 07:38:28;;;;;;;26.33;14.47;;;;;;;-0.88;90.55;99922.00;123950;1148;22698;-58
2021/01/05 07:40:55;;;;;;;23.40;12.93;;;;;;;-0.91;89.84;99921.52;124308;1148;22695;-60
2021/01/05 07:43:23;;;;;;;25.53;14.57;;;;;;;-0.93;89.83;99919.01;124080;1146;22682;-58
2021/01/05 07:45:50;;;;;;;26.10;13.73;;;;;;;-0.92;90.59;99919.84;124334;1147;23507;-58
2021/01/05 07:48:18;;;;;;;30.30;16.87;;;;;;;-0.93;89.77;99929.70;124183;1148;22754;-58
2021/01/05 07:50:45;;;;;;;31.33;14.17;;;;;;;-0.92;90.42;99925.20;124141;1148;22823;-58
2021/01/05 07:53:13;;;;;;;23.10;14.00;;;;;;;-0.88;90.45;99932.70;123974;1148;22710;-58
2021/01/05 07:55:50;;;;;;;29.10;15.20;;;;;;;-0.83;90.35;99930.31;124064;1149;23462;-57
2021/01/05 07:58:17;;;;;;;23.90;14.27;;;;;;;-0.79;90.89;99936.16;124213;1146;22798;-57
2021/01/05 08:00:45;;;;;;;28.00;15.53;;;;;;;-0.78;90.13;99933.31;124239;1148;23148;-57
2021/01/05 08:03:12;;;;;;;30.63;16.20;;;;;;;-0.79;89.74;99925.46;124316;1146;22789;-57
2021/01/05 08:05:39;;;;;;;25.33;15.43;;;;;;;-0.79;90.28;99936.16;124090;1148;23485;-57
2021/01/05 08:08:07;;;;;;;28.93;14.87;;;;;;;-0.79;90.56;99920.95;124266;1145;23404;-58
2021/01/05 08:10:36;;;;;;;32.60;18.57;;;;;;;-0.80;90.21;99913.09;124183;1147;22712;-58
2021/01/05 08:13:09;;;;;;;29.97;17.47;;;;;;;-0.79;90.09;99912.09;124182;1148;22667;-57
2021/01/05 08:15:36;;;;;;;34.23;16.10;;;;;;;-0.79;90.16;99914.77;124131;1148;22720;-57
2021/01/05 08:18:04;;;;;;;34.53;16.73;;;;;;;;;;124235;1148;22717;-57
2021/01/05 08:20:32;;;;;;;34.90;17.17;;;;;;;-0.79;89.97;99901.38;123978;1148;23361;-57
2021/01/05 08:23:00;;;;;;;32.40;17.10;;;;;;;-0.79;90.39;99891.52;124286;1146;22692;-57
2021/01/05 08:25:28;;;;;;;31.27;17.27;;;;;;;-0.78;90.26;99900.38;124057;1148;22631;-57
2021/01/05 08:27:55;;;;;;;30.20;16.60;;;;;;;-0.81;90.08;99901.55;124081;1148;22788;-57
2021/01/05 08:30:28;;;;;;;32.17;18.53;;;;;;;-0.80;89.83;99895.20;124082;1146;23368;-57
2021/01/05 08:33:03;;;;;;;31.70;19.07;;;;;;;-0.78;90.39;99897.70;124304;1147;25436;-57
2021/01/05 08:35:31;;;;;;;30.10;17.07;;;;;;;-0.76;90.18;99879.64;124284;1147;22665;-57
2021/01/05 08:37:58;;;;;;;34.27;16.37;;;;;;;-0.74;90.45;99880.30;124235;1145;23453;-56
2021/01/05 08:40:27;;;;;;;30.80;17.13;;;;;;;-0.74;89.94;99872.27;123986;1148;22731;-57
2021/01/05 08:42:56;;;;;;;32.77;17.23;;;;;;;-0.72;90.17;99868.39;124243;1148;24477;-57
2021/01/05 08:45:27;;;;;;;30.47;17.97;;;;;;;-0.70;90.00;99862.86;124084;1148;26410;-58
2021/01/05 08:47:55;;;;;;;32.33;17.80;;;;;;;-0.66;90.00;99852.64;124134;1148;22817;-58
2021/01/05 08:50:28;;;;;;;32.47;19.03;;;;;;;-0.66;89.73;99850.80;124174;1147;23569;-58
2021/01/05 08:52:57;;;;;;;30.27;17.20;;;;;;;-0.64;89.88;99854.14;124083;1149;22706;-58
2021/01/05 08:55:25;;;;;;;32.83;17.33;;;;;;;-0.77;89.60;99835.17;124089;1149;23315;-58
2021/01/05 08:57:52;;;;;;;30.87;16.20;;;;;;;-0.66;89.79;99856.16;124219;1145;22789;-58
2021/01/05 09:00:21;;;;;;;34.90;17.03;;;;;;;-0.64;89.57;99850.63;124424;1145;23534;-58
2021/01/05 09:02:49;;;;;;;34.33;17.00;;;;;;;-0.63;89.92;99871.86;124120;1146;22677;-58
2021/01/05 09:05:17;;;;;;;24.47;15.07;;;;;;;-0.61;90.11;99877.88;124331;1146;22689;-58
2021/01/05 09:07:44;;;;;;;28.53;15.87;;;;;;;-0.59;90.18;99870.50;124171;1146;23873;-58
2021/01/05 09:10:17;;;;;;;25.20;15.10;;;;;;;-0.57;90.06;99873.81;124380;1146;22694;-58
2021/01/05 09:12:45;;;;;;;28.83;17.40;;;;;;;-0.56;89.55;99871.97;124240;1146;22689;-58
2021/01/05 09:15:14;;;;;;;24.87;15.53;;;;;;;-0.57;90.31;99881.84;124451;1146;22705;-58
2021/01/05 09:17:44;;;;;;;29.37;16.83;;;;;;;-0.53;89.37;99874.30;124193;1146;23859;-58
2021/01/05 09:20:22;;;;;;;27.57;15.67;;;;;;;-0.52;89.90;99868.77;124396;1146;23303;-58
2021/01/05 09:22:50;;;;;;;31.70;15.53;;;;;;;-0.53;90.20;99877.80;124130;1147;23296;-58
2021/01/05 09:25:18;;;;;;;26.40;14.73;;;;;;;-0.54;89.79;99865.43;124087;1146;22850;-58
2021/01/05 09:27:45;;;;;;;27.13;15.37;;;;;;;-0.52;89.90;99868.77;124190;1146;23634;-58
2021/01/05 09:30:15;;;;;;;25.27;14.10;;;;;;;-0.52;89.02;99868.77;124355;1146;22706;-58
2021/01/05 09:32:42;;;;;;;25.37;13.83;;;;;;;-0.50;90.15;99861.39;124251;1146;22754;-58
2021/01/05 09:35:10;;;;;;;26.50;14.33;;;;;;;-0.50;88.76;99856.05;124367;1146;22692;-58
2021/01/05 09:37:45;;;;;;;25.90;14.30;;;;;;;-0.51;89.20;99854.38;124172;1147;22708;-58
2021/01/05 09:40:14;;;;;;;28.27;15.13;;;;;;;-0.50;89.28;99848.02;124327;1146;22722;-58
2021/01/05 09:42:42;;;;;;;24.80;13.90;;;;;;;-0.47;88.83;99828.93;124143;1146;22719;-58
2021/01/05 09:45:10;;;;;;;26.33;15.03;;;;;;;-0.42;90.04;99825.69;124269;1146;22702;-59
2021/01/05 09:47:37;;;;;;;23.83;14.33;;;;;;;-0.40;89.31;99829.02;124072;1146;22686;-59
2021/01/05 09:50:05;;;;;;;24.17;14.57;;;;;;;-0.42;89.73;99821.17;124298;1146;22744;-59
2021/01/05 09:52:36;;;;;;;22.40;13.47;;;;;;;-0.42;89.40;99820.34;124372;1146;22700;-58
2021/01/05 09:55:05;;;;;;;26.13;13.47;;;;;;;-0.43;89.29;99813.31;124234;1147;22688;-57
2021/01/05 09:57:32;;;;;;;21.80;12.53;;;;;;;-0.45;88.66;99818.88;124455;1146;22696;-57
2021/01/05 10:00:00;;;;;;;21.73;12.67;;;;;;;-0.46;89.17;99819.89;124063;1147;22761;-57
2021/01/05 10:02:27;;;;;;;22.83;12.43;;;;;;;-0.47;89.42;99801.33;124413;1146;22679;-57
2021/01/05 10:04:55;;;;;;;23.90;13.90;;;;;;;-0.48;88.67;99811.20;124086;1147;23317;-57
2021/01/05 10:07:24;;;;;;;25.50;14.10;;;;;;;-0.48;89.53;99805.02;124442;1147;23487;-57
2021/01/05 10:09:51;;;;;;;26.13;14.13;;;;;;;-0.48;89.71;99813.05;124073;1146;22845;-57
2021/01/05 10:12:19;;;;;;;23.13;13.10;;;;;;;-0.46;89.56;99805.67;124329;1147;22668;-57
2021/01/05 10:14:46;;;;;;;24.93;13.20;;;;;;;-0.45;89.49;99801.98;124275;1147;22813;-57
2021/01/05 10:17:14;;;;;;;20.70;11.80;;;;;;;-0.45;89.26;99807.34;124347;1146;22681;-57
2021/01/05 10:19:42;;;;;;;22.50;12.97;;;;;;;-0.44;89.41;99807.16;124156;1147;23587;-57
2021/01/05 10:22:09;;;;;;;21.73;12.03;;;;;;;-0.44;88.63;99811.69;124377;1147;22757;-57
2021/01/05 10:24:36;;;;;;;21.53;12.57;;;;;;;-0.45;89.81;99804.66;124214;1146;23156;-57
2021/01/05 10:27:04;;;;;;;23.37;13.20;;;;;;;-0.44;89.25;99790.27;124388;1147;23925;-57
2021/01/05 10:29:32;;;;;;;25.03;13.00;;;;;;;-0.44;88.80;99787.59;124190;1146;23451;-57
2021/01/05 10:31:59;;;;;;;24.17;13.77;;;;;;;-0.45;88.81;99783.25;124304;1147;22680;-57
2021/01/05 10:34:26;;;;;;;24.07;13.57;;;;;;;-0.44;89.80;99779.56;124234;1147;22751;-57
2021/01/05 10:36:54;;;;;;;23.43;12.73;;;;;;;-0.39;89.02;99769.12;124344;1146;22658;-57
2021/01/05 10:39:23;;;;;;;28.80;13.83;;;;;;;-0.33;89.83;99775.61;124369;1145;23313;-57
2021/01/05 10:41:50;;;;;;;28.30;14.50;;;;;;;-0.31;89.18;99770.91;124235;1147;23951;-57
2021/01/05 10:44:19;;;;;;;26.90;15.70;;;;;;;-0.27;89.68;99769.52;124266;1146;22791;-57
2021/01/05 10:46:46;;;;;;;24.75;14.85;;;;;;;-0.29;89.86;99767.05;124217;1145;22797;-57
2021/01/05 10:49:14;;;;;;;32.87;16.57;;;;;;;-0.37;89.76;99748.38;124269;1147;23442;-57
2021/01/05 10:51:48;;;;;;;27.07;15.03;;;;;;;-0.30;89.70;99767.23;124306;1147;22743;-57
2021/01/05 10:54:16;;;;;;;28.40;15.37;;;;;;;-0.32;89.36;99756.70;124334;1147;22755;-57
2021/01/05 10:56:45;;;;;;;28.80;16.53;;;;;;;-0.31;89.10;99753.00;124252;1146;24672;-57
2021/01/05 10:59:13;;;;;;;33.80;18.30;;;;;;;-0.31;89.09;99749.50;124375;1145;22810;-57
2021/01/05 11:01:40;;;;;;;30.80;17.50;;;;;;;-0.31;88.69;99755.69;124193;1145;22694;-57
2021/01/05 11:04:08;;;;;;;30.80;17.07;;;;;;;-0.29;88.96;99756.34;124405;1147;22693;-57
2021/01/05 11:06:37;;;;;;;34.23;17.83;;;;;;;-0.27;89.70;99751.61;121682;1147;26968;-56
2021/01/05 11:09:05;;;;;;;35.87;19.47;;;;;;;-0.25;89.23;99746.07;120250;1147;25484;-56
2021/01/05 11:11:33;;;;;;;37.00;19.37;;;;;;;-0.24;89.16;99737.03;124228;1147;23355;-57
2021/01/05 11:14:00;;;;;;;37.13;20.47;;;;;;;-0.21;89.87;99742.86;124351;1147;22778;-57
2021/01/05 11:16:28;;;;;;;40.50;22.97;;;;;;;-0.20;89.92;99743.69;124270;1147;22783;-57
2021/01/05 11:18:55;;;;;;;43.00;21.10;;;;;;;-0.18;89.85;99736.31;124413;1146;23594;-57
2021/01/05 11:21:23;;;;;;;32.95;18.35;;;;;;;-0.19;88.91;99735.48;124257;1146;23721;-57
2021/01/05 11:23:50;;;;;;;42.87;22.03;;;;;;;-0.20;89.07;99730.30;124391;1147;23373;-57
2021/01/05 11:26:18;;;;;;;38.13;21.53;;;;;;;-0.18;89.63;99737.14;124227;1147;23285;-57
2021/01/05 11:28:52;;;;;;;37.43;21.33;;;;;;;-0.16;89.77;99732.44;124372;1146;23450;-57
2021/01/05 11:31:20;;;;;;;44.33;22.40;;;;;;;-0.16;89.10;99737.79;124360;1146;22686;-57
2021/01/05 11:33:48;;;;;;;43.43;24.07;;;;;;;-0.14;89.18;99737.58;124354;1145;24012;-57
2021/01/05 11:36:26;;;;;;;50.67;22.10;;;;;;;-0.12;89.84;99731.03;124399;1147;22672;-57
2021/01/05 11:38:54;;;;;;;42.60;23.37;;;;;;;-0.08;89.55;99734.18;124272;1146;22663;-58
2021/01/05 11:41:23;;;;;;;38.83;22.53;;;;;;;-0.09;88.85;99737.88;124380;1147;22679;-58
2021/01/05 11:43:50;;;;;;;44.90;23.20;;;;;;;-0.07;89.87;99738.52;124247;1145;22693;-58
2021/01/05 11:46:18;;;;;;;45.57;25.97;;;;;;;-0.07;89.77;99738.52;124272;1146;22683;-58
2021/01/05 11:48:46;;;;;;;77.17;43.90;;;;;;;-0.09;89.73;99733.34;124067;1147;24416;-58
2021/01/05 11:51:18;;;;;;;60.30;36.20;;;;;;;-0.12;88.62;99736.39;124275;1147;22793;-57
2021/01/05 11:53:45;;;;;;;46.67;26.67;;;;;;;-0.12;89.29;99728.35;124223;1146;22721;-58
2021/01/05 11:56:23;;;;;;;72.50;32.63;;;;;;;-0.12;88.85;99725.67;124392;1146;22687;-58
2021/01/05 11:58:50;;;;;;;108.50;44.40;;;;;;;-0.12;89.47;99731.03;124168;1147;22730;-58